Time;durP1;ratioP1;P1;durP2;ratioP2;P2;SDS_P1;SDS_P2;PMS_P1;PMS_P2;Temp;Humidity;BMP_temperature;BMP_pressure;BME280_temperature;BME280_humidity;BME280_pressure;Samples;Min_cycle;Max_cycle;Signal;HPM_P1;HPM_P2
2022/03/28 00:04:31;;;;;;;7.05;6.30;;;19.20;40.00;;;;;;6218445;23;20687;-49
2022/03/28 00:06:59;;;;;;;6.57;5.93;;;19.10;39.60;;;;;;6217649;23;20214;-48
2022/03/28 00:09:26;;;;;;;6.55;5.90;;;19.20;40.00;;;;;;6217696;23;20168;-48
2022/03/28 00:11:54;;;;;;;6.55;5.95;;;19.10;39.80;;;;;;6215964;23;20566;-48
2022/03/28 00:14:22;;;;;;;8.38;6.25;;;19.10;39.70;;;;;;6217886;23;20491;-48
2022/03/28 00:16:49;;;;;;;7.22;6.10;;;19.10;39.60;;;;;;6202663;23;20206;-65
2022/03/28 00:19:16;;;;;;;7.30;5.55;;;19.00;39.80;;;;;;6190899;23;20530;-62
2022/03/28 00:21:44;;;;;;;6.60;5.90;;;19.10;39.80;;;;;;6191821;23;20182;-62
2022/03/28 00:24:11;;;;;;;6.10;5.50;;;19.00;39.70;;;;;;6195097;23;20570;-62
2022/03/28 00:26:38;;;;;;;6.10;5.53;;;19.00;39.70;;;;;;6189117;23;20164;-62
2022/03/28 00:29:06;;;;;;;7.13;5.70;;;19.00;39.70;;;;;;6189216;23;20188;-62
2022/03/28 00:31:33;;;;;;;5.85;5.35;;;19.00;39.60;;;;;;6163404;23;20227;-62
2022/03/28 00:34:00;;;;;;;6.72;5.95;;;19.00;39.70;;;;;;6187555;23;20188;-63
2022/03/28 00:36:27;;;;;;;6.45;5.82;;;19.00;39.90;;;;;;6160944;23;20619;-62
2022/03/28 00:38:56;;;;;;;6.53;5.75;;;19.00;39.80;;;;;;6188070;23;20161;-62
2022/03/28 00:41:23;;;;;;;6.18;5.50;;;18.90;39.80;;;;;;6160692;23;20203;-62
2022/03/28 00:43:54;;;;;;;6.50;5.90;;;18.90;39.70;;;;;;6186938;23;20188;-62
2022/03/28 00:46:22;;;;;;;6.82;6.10;;;18.90;39.80;;;;;;6187177;23;20165;-62
2022/03/28 00:48:49;;;;;;;6.70;6.00;;;18.90;39.80;;;;;;6187105;23;20188;-63
2022/03/28 00:51:17;;;;;;;7.50;6.00;;;18.80;39.50;;;;;;6187725;23;20215;-61
2022/03/28 00:53:44;;;;;;;7.85;6.10;;;18.80;39.80;;;;;;6187616;23;20725;-62
2022/03/28 00:56:13;;;;;;;6.82;5.93;;;18.80;39.80;;;;;;6187690;23;20164;-62
2022/03/28 00:58:40;;;;;;;6.32;5.72;;;18.80;39.70;;;;;;6187385;23;20196;-63
2022/03/28 01:01:09;;;;;;;6.95;5.95;;;18.80;39.80;;;;;;6161253;23;20184;-62
2022/03/28 01:03:36;;;;;;;8.85;6.00;;;18.80;39.70;;;;;;6188138;23;20191;-62
2022/03/28 01:06:03;;;;;;;6.63;5.93;;;18.70;39.70;;;;;;6187466;23;20546;-63
2022/03/28 01:08:31;;;;;;;6.68;5.97;;;18.70;39.70;;;;;;6160338;23;20258;-62
2022/03/28 01:10:58;;;;;;;7.47;6.13;;;18.70;39.70;;;;;;6160275;23;20176;-63
2022/03/28 01:13:26;;;;;;;6.38;5.78;;;18.70;39.80;;;;;;6186757;23;20187;-63
2022/03/28 01:15:54;;;;;;;6.78;6.07;;;18.70;39.60;;;;;;6185411;23;20255;-62
2022/03/28 01:18:22;;;;;;;6.13;5.35;;;18.70;39.70;;;;;;6161342;23;20176;-63
2022/03/28 01:20:49;;;;;;;6.60;5.95;;;18.60;39.60;;;;;;6186871;23;20153;-63
2022/03/28 01:23:17;;;;;;;6.85;6.13;;;18.70;39.80;;;;;;6187199;23;20188;-62
2022/03/28 01:25:44;;;;;;;6.82;5.65;;;18.60;39.70;;;;;;6185725;23;20259;-62
2022/03/28 01:28:11;;;;;;;6.72;6.13;;;18.60;39.80;;;;;;6185149;23;20601;-62
2022/03/28 01:30:38;;;;;;;6.75;6.05;;;18.60;39.80;;;;;;6186672;23;20167;-62
2022/03/28 01:33:06;;;;;;;6.82;6.13;;;18.60;40.40;;;;;;6186876;23;20565;-62
2022/03/28 01:35:34;;;;;;;7.93;6.22;;;18.60;39.80;;;;;;6186632;23;20165;-62
2022/03/28 01:38:02;;;;;;;6.70;5.75;;;18.50;39.60;;;;;;6186829;23;20167;-62
2022/03/28 01:40:32;;;;;;;6.38;5.78;;;18.50;39.70;;;;;;6186684;23;20233;-63
2022/03/28 01:42:59;;;;;;;6.00;5.40;;;18.50;39.80;;;;;;6186501;23;20192;-62
2022/03/28 01:45:26;;;;;;;6.88;6.18;;;18.50;39.70;;;;;;6186614;23;20168;-62
2022/03/28 01:47:54;;;;;;;6.63;5.93;;;18.50;39.70;;;;;;6184584;23;20192;-62
2022/03/28 01:50:21;;;;;;;7.82;6.10;;;18.50;39.80;;;;;;6184750;23;20555;-62
2022/03/28 01:52:48;;;;;;;6.47;5.82;;;18.50;39.60;;;;;;6186517;23;20188;-62
2022/03/28 01:55:16;;;;;;;8.30;6.35;;;18.50;39.60;;;;;;6184697;23;20168;-63
2022/03/28 01:57:45;;;;;;;6.68;5.97;;;18.40;39.50;;;;;;6184747;23;20198;-62
2022/03/28 02:00:13;;;;;;;6.40;5.65;;;18.40;39.80;;;;;;6186396;23;20248;-62
2022/03/28 02:02:41;;;;;;;6.32;5.63;;;18.40;39.60;;;;;;6186851;23;20203;-62
2022/03/28 02:05:11;;;;;;;6.57;5.97;;;18.40;39.60;;;;;;6184727;23;20226;-63
2022/03/28 02:07:40;;;;;;;6.75;6.07;;;18.40;39.60;;;;;;6184602;23;20164;-62
2022/03/28 02:10:08;;;;;;;6.60;6.00;;;18.30;39.50;;;;;;6186172;23;20191;-62
2022/03/28 02:12:36;;;;;;;7.03;6.32;;;18.40;39.70;;;;;;6186317;23;20658;-62
2022/03/28 02:15:06;;;;;;;7.10;5.97;;;18.30;39.50;;;;;;6186398;23;20172;-62
2022/03/28 02:17:33;;;;;;;6.53;5.75;;;18.30;39.50;;;;;;6186347;23;20172;-63
2022/03/28 02:20:00;;;;;;;6.82;6.15;;;18.30;39.50;;;;;;6185952;23;20172;-63
2022/03/28 02:22:28;;;;;;;7.05;5.78;;;18.30;39.60;;;;;;6186290;23;20169;-63
2022/03/28 02:24:55;;;;;;;6.53;5.93;;;18.30;39.50;;;;;;6186445;23;20219;-62
2022/03/28 02:27:22;;;;;;;6.95;6.25;;;18.30;39.40;;;;;;6160142;23;20524;-62
2022/03/28 02:29:49;;;;;;;6.00;5.40;;;18.30;39.70;;;;;;6160217;23;20220;-62
2022/03/28 02:32:18;;;;;;;6.97;6.28;;;18.30;39.60;;;;;;6186181;23;20175;-62
2022/03/28 02:34:45;;;;;;;6.80;6.10;;;18.20;39.40;;;;;;6186189;23;20203;-62
2022/03/28 02:37:12;;;;;;;6.57;5.97;;;18.20;39.50;;;;;;6185913;23;20168;-63
2022/03/28 02:39:39;;;;;;;6.47;5.75;;;18.20;39.40;;;;;;6186292;23;20241;-63
2022/03/28 02:42:09;;;;;;;6.72;6.00;;;18.20;39.50;;;;;;6185925;23;20168;-62
2022/03/28 02:44:36;;;;;;;6.95;6.25;;;18.20;39.80;;;;;;6185847;23;20263;-62
2022/03/28 02:47:04;;;;;;;7.00;6.25;;;18.10;39.40;;;;;;6185984;23;20169;-62
2022/03/28 02:49:32;;;;;;;6.68;6.07;;;18.20;39.30;;;;;;6186017;23;20184;-62
2022/03/28 02:51:59;;;;;;;6.97;6.22;;;18.10;39.50;;;;;;6186101;23;20166;-62
2022/03/28 02:54:26;;;;;;;8.27;6.20;;;18.10;39.50;;;;;;6159237;23;20196;-62
2022/03/28 02:56:54;;;;;;;7.15;6.43;;;18.10;39.40;;;;;;6186306;23;20222;-62
2022/03/28 02:59:21;;;;;;;7.05;6.35;;;18.10;39.60;;;;;;6185849;23;20160;-63
2022/03/28 03:01:48;;;;;;;6.95;6.25;;;18.10;39.40;;;;;;6186060;23;20195;-62
2022/03/28 03:04:16;;;;;;;6.20;5.53;;;18.10;39.40;;;;;;6185736;23;20195;-62
2022/03/28 03:06:44;;;;;;;7.70;6.38;;;18.10;39.40;;;;;;6185667;23;20237;-62
2022/03/28 03:09:11;;;;;;;6.38;5.78;;;18.00;39.50;;;;;;6185601;23;20204;-62
2022/03/28 03:11:40;;;;;;;7.40;6.18;;;18.00;39.50;;;;;;6185751;23;20168;-62
2022/03/28 03:14:07;;;;;;;7.60;6.00;;;18.00;39.40;;;;;;6159211;23;20517;-62
2022/03/28 03:16:34;;;;;;;6.57;5.97;;;18.00;39.30;;;;;;6159204;23;20226;-62
2022/03/28 03:19:03;;;;;;;6.60;5.97;;;18.00;39.40;;;;;;6185348;23;20175;-62
2022/03/28 03:21:30;;;;;;;6.82;6.18;;;18.00;39.30;;;;;;6185680;23;20167;-63
2022/03/28 03:23:59;;;;;;;8.07;6.68;;;18.00;39.40;;;;;;6185738;23;20737;-62
2022/03/28 03:26:26;;;;;;;8.70;6.93;;;18.00;39.40;;;;;;6185698;23;20175;-62
2022/03/28 03:28:55;;;;;;;7.13;6.43;;;18.00;39.70;;;;;;6158947;23;20218;-62
2022/03/28 03:31:23;;;;;;;7.60;6.50;;;18.00;39.50;;;;;;6185465;23;20160;-62
2022/03/28 03:33:50;;;;;;;6.88;6.18;;;17.90;39.60;;;;;;6185765;23;20238;-62
2022/03/28 03:36:17;;;;;;;8.93;6.30;;;17.90;39.60;;;;;;6159339;23;20183;-62
2022/03/28 03:38:45;;;;;;;6.90;6.20;;;17.90;39.50;;;;;;6185654;23;20183;-62
2022/03/28 03:41:14;;;;;;;7.20;5.93;;;17.90;39.60;;;;;;6184074;23;20176;-62
2022/03/28 03:43:41;;;;;;;7.10;6.40;;;17.90;39.50;;;;;;6158930;23;20562;-62
2022/03/28 03:46:08;;;;;;;7.32;6.57;;;17.90;39.60;;;;;;6185435;23;20677;-62
2022/03/28 03:48:35;;;;;;;6.90;6.25;;;17.90;40.20;;;;;;6159119;23;20270;-62
2022/03/28 03:51:03;;;;;;;7.38;6.68;;;17.90;40.20;;;;;;6185439;23;20175;-62
2022/03/28 03:53:30;;;;;;;6.57;5.97;;;17.90;39.60;;;;;;6185536;23;20192;-62
2022/03/28 03:55:57;;;;;;;8.18;6.70;;;17.90;39.60;;;;;;6184091;23;20178;-63
2022/03/28 03:58:25;;;;;;;7.10;6.40;;;17.90;39.60;;;;;;6185524;23;20226;-62
2022/03/28 04:00:52;;;;;;;7.38;6.68;;;17.80;39.50;;;;;;6185363;23;20168;-62
2022/03/28 04:03:20;;;;;;;7.22;6.53;;;17.90;39.50;;;;;;6185547;23;20188;-62
2022/03/28 04:05:47;;;;;;;6.80;6.10;;;17.90;39.60;;;;;;6185535;23;20192;-62
2022/03/28 04:08:14;;;;;;;7.72;6.40;;;17.90;39.60;;;;;;6185298;23;20252;-63
2022/03/28 04:10:42;;;;;;;9.27;6.20;;;17.80;39.40;;;;;;6185765;23;20239;-62
2022/03/28 04:13:10;;;;;;;7.07;6.20;;;17.80;39.40;;;;;;6158893;23;20195;-62
2022/03/28 04:15:38;;;;;;;7.88;6.20;;;17.80;39.50;;;;;;6159027;23;20176;-62
2022/03/28 04:18:06;;;;;;;7.40;6.15;;;17.80;39.50;;;;;;6159893;23;20232;-62
2022/03/28 04:20:33;;;;;;;7.32;5.97;;;17.80;39.50;;;;;;6187229;23;20207;-62
2022/03/28 04:23:01;;;;;;;7.63;6.93;;;17.80;39.50;;;;;;6187263;23;20662;-63
2022/03/28 04:25:28;;;;;;;8.60;6.57;;;17.90;40.10;;;;;;6187235;23;20205;-62
2022/03/28 04:27:55;;;;;;;7.22;6.53;;;17.80;40.20;;;;;;6187804;23;20165;-63
2022/03/28 04:30:23;;;;;;;7.68;6.88;;;17.90;40.20;;;;;;6187234;23;20227;-63
2022/03/28 04:32:51;;;;;;;7.38;6.68;;;17.80;40.10;;;;;;6160666;23;20658;-63
2022/03/28 04:35:20;;;;;;;6.93;6.20;;;17.90;40.00;;;;;;6187474;23;20169;-63
2022/03/28 04:37:47;;;;;;;7.50;6.18;;;17.90;40.20;;;;;;6187243;23;20168;-63
2022/03/28 04:40:16;;;;;;;8.75;6.63;;;17.90;40.70;;;;;;6187080;23;20749;-63
2022/03/28 04:42:43;;;;;;;7.65;6.85;;;17.90;40.60;;;;;;6186746;23;20223;-64
2022/03/28 04:45:10;;;;;;;7.72;6.60;;;18.00;40.80;;;;;;6186922;23;20168;-63
2022/03/28 04:47:37;;;;;;;8.35;6.82;;;18.00;40.80;;;;;;6160468;23;20263;-63
2022/03/28 04:50:07;;;;;;;7.07;6.35;;;18.00;41.10;;;;;;6186726;23;20222;-63
2022/03/28 04:52:34;;;;;;;7.13;6.43;;;18.00;41.20;;;;;;6187165;23;20654;-63
2022/03/28 04:55:01;;;;;;;8.23;5.78;;;18.00;41.00;;;;;;6186803;23;20168;-63
2022/03/28 04:57:28;;;;;;;6.88;5.85;;;18.00;40.80;;;;;;6232335;22;20309;-71
2022/03/28 04:59:55;;;;;;;10.75;6.38;;;18.00;40.40;;;;;;6220542;23;20217;-72
2022/03/28 05:02:22;;;;;;;6.88;5.93;;;18.10;39.80;;;;;;6218865;23;20258;-72
2022/03/28 05:04:50;;;;;;;9.27;6.43;;;18.00;40.20;;;;;;6218206;23;20174;-71
2022/03/28 05:07:25;;;;;;;7.47;6.28;;;18.00;39.90;;;;;;6217918;23;20178;-73
2022/03/28 05:09:53;;;;;;;8.43;5.97;;;18.00;40.30;;;;;;6218204;23;20285;-72
2022/03/28 05:12:20;;;;;;;7.80;6.47;;;18.00;39.60;;;;;;6217951;23;20171;-72
2022/03/28 05:14:47;;;;;;;6.38;5.78;;;18.00;40.60;;;;;;6218289;23;20257;-72
2022/03/28 05:17:15;;;;;;;8.00;5.70;;;18.00;40.50;;;;;;6219383;23;20228;-72
2022/03/28 05:19:43;;;;;;;7.60;6.28;;;18.00;39.90;;;;;;6220453;23;20197;-71
2022/03/28 05:22:10;;;;;;;7.15;6.45;;;18.00;39.80;;;;;;6220343;23;20512;-73
2022/03/28 05:24:38;;;;;;;6.88;6.13;;;18.00;39.80;;;;;;6219585;23;20202;-71
2022/03/28 05:27:06;;;;;;;6.35;5.75;;;18.00;39.90;;;;;;6219314;23;20167;-71
2022/03/28 05:29:33;;;;;;;6.32;5.72;;;18.10;39.80;;;;;;6218512;23;20193;-72
2022/03/28 05:32:01;;;;;;;8.20;5.90;;;18.10;39.80;;;;;;6218950;23;20177;-71
2022/03/28 05:34:30;;;;;;;7.30;6.60;;;18.00;39.70;;;;;;6219137;23;20614;-71
2022/03/28 05:36:58;;;;;;;8.32;6.13;;;18.10;39.80;;;;;;6219055;23;20227;-71
2022/03/28 05:39:25;;;;;;;6.82;6.13;;;18.00;40.20;;;;;;6219026;23;20244;-71
2022/03/28 05:55:24;;;;;;;6.15;5.53;;;18.20;38.90;;;;;;6196987;22;20534;-70
2022/03/28 05:57:51;;;;;;;7.00;5.97;;;18.20;39.00;;;;;;6252527;22;20613;-70
2022/03/28 06:00:18;;;;;;;6.85;5.70;;;18.20;39.10;;;;;;6240997;23;20610;-70
2022/03/28 06:02:45;;;;;;;6.35;5.75;;;18.20;39.00;;;;;;6248924;23;20182;-70
2022/03/28 06:05:13;;;;;;;6.65;6.00;;;18.20;38.80;;;;;;6248118;23;20262;-71
2022/03/28 06:07:40;;;;;;;7.38;5.47;;;18.30;38.80;;;;;;6224070;23;20520;-72
2022/03/28 06:10:08;;;;;;;6.65;6.00;;;18.30;38.80;;;;;;6224035;23;20206;-70
2022/03/28 06:12:36;;;;;;;7.40;6.03;;;18.30;38.80;;;;;;6250086;23;20175;-69
2022/03/28 06:17:39;;;;;;;7.00;6.30;;;18.30;38.50;;;;;;6160762;23;20183;-63
2022/03/28 06:20:08;;;;;;;6.88;5.60;;;18.30;38.50;;;;;;6186315;23;20599;-63
2022/03/28 06:22:35;;;;;;;6.25;5.63;;;18.30;38.40;;;;;;6190790;23;20237;-63
2022/03/28 06:25:02;;;;;;;6.55;5.85;;;18.40;38.50;;;;;;6216136;23;20700;-63
2022/03/28 06:27:29;;;;;;;6.63;6.03;;;18.40;38.50;;;;;;6189893;23;20176;-63
2022/03/28 06:29:58;;;;;;;7.95;6.25;;;18.40;38.50;;;;;;6189850;23;20218;-63
2022/03/28 06:32:25;;;;;;;6.90;6.10;;;18.40;38.30;;;;;;6189526;23;20181;-63
2022/03/28 06:34:52;;;;;;;7.65;6.05;;;18.50;38.40;;;;;;6189626;23;20179;-63
2022/03/28 06:37:22;;;;;;;7.32;6.18;;;18.40;38.30;;;;;;6189296;23;20217;-63
2022/03/28 06:39:50;;;;;;;7.25;6.55;;;18.50;38.00;;;;;;6189190;23;20507;-63
2022/03/28 06:42:17;;;;;;;7.07;5.90;;;18.60;38.00;;;;;;6189046;23;20318;-63
2022/03/28 06:44:44;;;;;;;6.50;5.90;;;18.80;37.80;;;;;;6189276;23;20519;-63
2022/03/28 06:47:13;;;;;;;6.38;5.78;;;19.00;37.70;;;;;;6215738;23;20646;-63
2022/03/28 06:49:39;;;;;;;6.57;5.90;;;19.20;37.50;;;;;;6216574;23;20183;-63
2022/03/28 06:52:07;;;;;;;6.60;6.00;;;19.40;37.70;;;;;;6216180;23;20168;-63
2022/03/28 06:54:35;;;;;;;6.00;5.40;;;19.60;36.80;;;;;;6189095;23;20202;-64
2022/03/28 06:57:03;;;;;;;6.40;5.63;;;19.80;36.50;;;;;;6189092;23;20176;-64
2022/03/28 06:59:30;;;;;;;8.82;6.03;;;19.90;36.30;;;;;;6215813;23;20164;-63
2022/03/28 07:01:57;;;;;;;6.35;5.75;;;20.10;36.00;;;;;;6216024;23;20178;-63
2022/03/28 07:04:25;;;;;;;6.50;5.90;;;20.30;35.90;;;;;;6215921;23;20194;-64
2022/03/28 07:06:52;;;;;;;7.25;6.30;;;20.40;35.60;;;;;;6189546;23;20178;-63
2022/03/28 07:09:20;;;;;;;6.80;6.10;;;20.60;34.90;;;;;;6189206;23;20200;-64
2022/03/28 07:11:47;;;;;;;6.43;5.82;;;20.70;34.80;;;;;;6189132;23;20227;-63
2022/03/28 07:14:16;;;;;;;9.68;6.68;;;20.80;34.50;;;;;;6215645;23;20195;-63
2022/03/28 07:16:43;;;;;;;7.97;6.63;;;21.00;34.50;;;;;;6215825;23;20523;-63
2022/03/28 07:19:10;;;;;;;7.47;6.78;;;21.10;34.50;;;;;;6215649;23;20163;-63
2022/03/28 07:21:39;;;;;;;9.93;6.60;;;21.30;34.10;;;;;;6215594;23;20477;-63
2022/03/28 07:24:07;;;;;;;7.82;7.03;;;21.40;33.90;;;;;;6215448;23;20645;-63
2022/03/28 07:26:34;;;;;;;8.40;7.38;;;21.50;33.90;;;;;;6215662;23;20218;-63
2022/03/28 07:29:02;;;;;;;9.48;8.13;;;21.60;34.00;;;;;;6215863;23;20221;-63
2022/03/28 07:31:30;;;;;;;9.48;7.80;;;21.70;33.60;;;;;;6215590;23;20552;-63
2022/03/28 07:34:29;;;;;;;11.63;9.73;;;21.80;33.40;;;;;;6189276;23;20199;-63
2022/03/28 07:36:47;;;;;;;9.10;7.72;;;21.90;33.10;;;;;;6215450;23;20171;-63
2022/03/28 07:39:14;;;;;;;10.32;8.63;;;22.00;33.00;;;;;;6215883;23;20241;-63
2022/03/28 07:41:41;;;;;;;8.70;7.78;;;22.10;32.80;;;;;;6216123;23;20250;-64
2022/03/28 07:44:08;;;;;;;10.57;8.30;;;22.20;32.70;;;;;;6189779;23;20195;-63
2022/03/28 07:46:35;;;;;;;9.70;7.60;;;22.20;32.60;;;;;;6189532;23;20175;-63
2022/03/28 07:49:02;;;;;;;8.43;7.15;;;22.30;32.60;;;;;;6189243;23;20284;-63
2022/03/28 07:51:29;;;;;;;7.78;6.60;;;22.40;32.40;;;;;;6216656;23;20270;-63
2022/03/28 07:53:58;;;;;;;8.75;6.88;;;22.50;32.30;;;;;;6191219;23;20269;-63
2022/03/28 07:56:26;;;;;;;8.00;7.10;;;22.50;32.20;;;;;;6217681;23;20671;-64
2022/03/28 07:58:53;;;;;;;7.72;6.57;;;22.60;32.10;;;;;;6216449;23;20183;-63
2022/03/28 08:01:21;;;;;;;7.32;6.10;;;22.70;32.10;;;;;;6218402;23;20606;-64
2022/03/28 08:03:48;;;;;;;6.97;6.10;;;22.70;32.20;;;;;;6217659;23;20194;-63
2022/03/28 08:06:15;;;;;;;6.57;5.95;;;22.70;32.20;;;;;;6191218;23;20175;-64
2022/03/28 08:08:42;;;;;;;7.30;6.07;;;22.80;32.90;;;;;;6217998;23;20246;-64
2022/03/28 08:11:11;;;;;;;6.97;6.20;;;22.90;32.20;;;;;;6191015;23;20188;-63
2022/03/28 08:13:38;;;;;;;6.82;6.13;;;22.90;32.20;;;;;;6216494;23;20213;-63
2022/03/28 08:16:31;;;;;;;6.80;6.10;;;23.00;32.20;;;;;;6197069;23;20305;-63
2022/03/28 08:19:23;;;;;;;7.63;5.40;;;23.00;32.20;;;;;;6219130;23;20203;-63
2022/03/28 08:21:50;;;;;;;5.93;5.35;;;23.10;32.20;;;;;;6191442;23;20167;-63
2022/03/28 08:24:17;;;;;;;5.80;5.18;;;23.10;32.20;;;;;;6224892;23;20188;-63
2022/03/28 08:26:47;;;;;;;5.78;4.95;;;23.10;32.10;;;;;;6217984;23;20218;-64
2022/03/28 08:29:14;;;;;;;5.85;5.22;;;23.20;32.40;;;;;;6191739;23;20175;-63
2022/03/28 08:31:42;;;;;;;5.45;4.88;;;23.20;32.90;;;;;;6217899;23;20188;-63
2022/03/28 08:34:09;;;;;;;6.40;5.18;;;23.20;32.30;;;;;;6191620;23;20683;-63
2022/03/28 08:36:36;;;;;;;5.32;4.82;;;23.20;32.30;;;;;;6218269;23;20194;-63
2022/03/28 08:39:03;;;;;;;5.22;4.78;;;23.20;32.40;;;;;;6218647;23;20194;-63
2022/03/28 08:41:31;;;;;;;6.20;4.95;;;23.20;32.20;;;;;;6192932;23;20581;-63
2022/03/28 08:43:59;;;;;;;4.97;4.50;;;23.30;32.30;;;;;;6218024;23;20187;-63
2022/03/28 08:46:26;;;;;;;5.22;4.72;;;23.30;32.30;;;;;;6191393;23;20175;-63
2022/03/28 08:48:54;;;;;;;5.32;4.82;;;23.30;32.30;;;;;;6191258;23;20590;-63
2022/03/28 08:51:21;;;;;;;5.15;4.65;;;23.40;32.40;;;;;;6217488;23;20592;-63
2022/03/28 08:53:48;;;;;;;5.10;4.70;;;23.40;32.40;;;;;;6217737;23;20497;-64
2022/03/28 08:56:16;;;;;;;5.20;4.70;;;23.40;32.30;;;;;;6218247;23;20194;-63
2022/03/28 08:58:43;;;;;;;5.60;5.10;;;23.40;32.00;;;;;;6190936;23;20200;-63
2022/03/28 09:01:11;;;;;;;5.15;4.65;;;23.50;32.10;;;;;;6190943;23;20718;-63
2022/03/28 09:03:39;;;;;;;5.47;4.97;;;23.50;32.00;;;;;;6217105;23;20267;-64
2022/03/28 09:06:32;;;;;;;5.30;4.80;;;23.50;32.10;;;;;;6191358;23;20202;-65
2022/03/28 09:09:19;;;;;;;5.60;4.60;;;23.60;32.00;;;;;;6192090;23;20179;-64
2022/03/28 09:11:47;;;;;;;5.00;4.60;;;23.60;32.20;;;;;;6217240;23;20185;-64
2022/03/28 09:14:27;;;;;;;5.55;5.05;;;23.60;32.20;;;;;;6217314;23;20187;-63
2022/03/28 09:17:10;;;;;;;5.45;4.95;;;23.60;31.90;;;;;;6217565;23;20179;-63
2022/03/28 09:19:45;;;;;;;4.60;4.18;;;23.60;31.80;;;;;;6190392;23;20552;-64
2022/03/28 09:22:13;;;;;;;4.88;4.45;;;23.70;32.00;;;;;;6217258;23;20625;-63
2022/03/28 09:24:41;;;;;;;5.28;4.68;;;23.70;32.00;;;;;;6190479;23;20171;-63
2022/03/28 09:27:13;;;;;;;5.25;4.85;;;23.70;31.80;;;;;;6190366;23;20172;-63
2022/03/28 09:29:57;;;;;;;5.55;5.05;;;23.80;31.80;;;;;;6216789;23;20213;-64
2022/03/28 09:32:27;;;;;;;5.00;4.53;;;23.70;31.90;;;;;;6216673;23;20183;-63
2022/03/28 09:35:13;;;;;;;6.40;5.22;;;23.70;31.60;;;;;;6190118;23;20619;-64
2022/03/28 09:38:08;;;;;;;5.00;4.60;;;23.70;31.60;;;;;;6190039;23;20187;-63
2022/03/28 09:40:38;;;;;;;5.20;4.70;;;23.70;31.80;;;;;;6189854;23;20178;-64
2022/03/28 09:43:06;;;;;;;5.38;4.88;;;23.70;31.70;;;;;;6189968;23;20661;-63
2022/03/28 09:45:37;;;;;;;5.25;4.75;;;23.70;31.70;;;;;;6190187;23;20171;-63
2022/03/28 09:48:07;;;;;;;5.60;4.63;;;23.70;31.80;;;;;;6216530;23;20202;-64
2022/03/28 09:50:38;;;;;;;5.18;4.68;;;23.70;31.80;;;;;;6216446;23;20186;-65
2022/03/28 09:53:16;;;;;;;5.15;4.40;;;23.70;31.90;;;;;;6189966;23;20241;-63
2022/03/28 09:55:52;;;;;;;6.22;5.28;;;23.70;32.00;;;;;;6189733;23;20218;-63
2022/03/28 09:58:43;;;;;;;4.60;4.20;;;23.70;31.90;;;;;;6216700;23;20237;-64
2022/03/28 10:01:18;;;;;;;5.13;4.63;;;23.70;32.00;;;;;;6216552;23;20231;-63
2022/03/28 10:03:48;;;;;;;5.38;4.63;;;23.60;31.90;;;;;;6216425;23;20501;-64
2022/03/28 10:06:15;;;;;;;5.13;4.63;;;23.60;32.00;;;;;;6190483;23;20179;-66
2022/03/28 10:08:42;;;;;;;5.35;4.85;;;23.60;32.00;;;;;;6217610;23;20610;-64
2022/03/28 10:11:09;;;;;;;5.85;4.65;;;23.60;32.10;;;;;;6189660;23;20215;-63
2022/03/28 10:13:36;;;;;;;5.18;4.68;;;23.60;32.20;;;;;;6216525;23;20188;-64
2022/03/28 10:16:04;;;;;;;5.32;4.78;;;23.60;32.90;;;;;;6188878;23;20652;-64
2022/03/28 10:18:32;;;;;;;5.60;5.10;;;23.60;32.30;;;;;;6189694;23;20615;-64
2022/03/28 10:21:02;;;;;;;5.43;4.88;;;23.60;32.50;;;;;;6216381;23;20156;-64
2022/03/28 10:23:34;;;;;;;5.20;4.70;;;23.60;32.50;;;;;;6189832;23;20247;-63
2022/03/28 10:26:01;;;;;;;5.30;4.80;;;23.50;33.10;;;;;;6216485;23;20160;-64
2022/03/28 10:28:29;;;;;;;5.15;4.65;;;23.50;32.70;;;;;;6189622;23;20321;-64
2022/03/28 10:31:09;;;;;;;5.10;4.60;;;23.50;33.50;;;;;;6216001;23;20270;-63
2022/03/28 10:33:36;;;;;;;5.97;4.93;;;23.50;32.90;;;;;;6216309;23;20214;-63
2022/03/28 10:36:06;;;;;;;5.20;4.70;;;23.50;32.80;;;;;;6189347;23;20564;-64
2022/03/28 10:38:33;;;;;;;5.38;4.95;;;23.50;32.90;;;;;;6189314;23;20167;-63
2022/03/28 10:41:00;;;;;;;5.53;4.80;;;23.60;32.90;;;;;;6216276;23;20188;-63
2022/03/28 10:43:28;;;;;;;4.90;4.50;;;23.50;33.10;;;;;;6215845;23;20190;-63
2022/03/28 10:45:56;;;;;;;5.40;4.90;;;23.50;33.20;;;;;;6215871;23;20172;-63
2022/03/28 10:48:38;;;;;;;4.95;4.45;;;23.60;33.30;;;;;;6215921;23;20160;-64
2022/03/28 10:51:07;;;;;;;5.30;4.80;;;23.50;33.30;;;;;;6215693;23;20187;-64
2022/03/28 10:53:37;;;;;;;5.45;4.95;;;23.60;33.40;;;;;;6189286;23;20199;-63
2022/03/28 10:56:05;;;;;;;5.20;4.80;;;23.60;33.20;;;;;;6189086;23;20179;-63
2022/03/28 10:58:36;;;;;;;5.10;4.60;;;23.60;33.00;;;;;;6215800;23;20174;-64
2022/03/28 11:01:18;;;;;;;5.53;4.65;;;23.60;32.80;;;;;;6216072;23;20147;-64
2022/03/28 11:03:47;;;;;;;5.10;4.70;;;23.60;32.80;;;;;;6189172;23;20191;-63
2022/03/28 11:06:16;;;;;;;5.15;4.65;;;23.60;32.80;;;;;;6215811;23;20171;-64
2022/03/28 11:08:45;;;;;;;4.90;4.50;;;23.60;32.80;;;;;;6216613;23;20206;-64
2022/03/28 11:11:19;;;;;;;4.95;4.55;;;23.60;32.90;;;;;;6215747;23;20186;-64
2022/03/28 11:13:59;;;;;;;4.82;4.43;;;23.60;32.90;;;;;;6189477;23;20199;-64
2022/03/28 11:16:45;;;;;;;5.55;4.80;;;23.60;33.00;;;;;;6214444;23;20182;-64
2022/03/28 11:19:23;;;;;;;5.25;4.75;;;23.60;33.10;;;;;;6189110;23;20159;-63
2022/03/28 11:21:59;;;;;;;4.80;4.40;;;23.60;33.30;;;;;;6188936;23;20178;-63
2022/03/28 11:24:43;;;;;;;5.18;4.65;;;23.60;33.20;;;;;;6215855;23;20207;-64
2022/03/28 11:27:10;;;;;;;5.53;4.93;;;23.50;33.30;;;;;;6215624;23;20167;-63
2022/03/28 11:29:37;;;;;;;4.75;4.35;;;23.50;33.20;;;;;;6215607;23;20168;-63
2022/03/28 11:32:06;;;;;;;5.00;4.60;;;23.50;33.20;;;;;;6215961;23;20727;-64
2022/03/28 11:34:33;;;;;;;5.25;4.78;;;23.50;33.30;;;;;;6215445;23;20184;-63
2022/03/28 11:37:02;;;;;;;4.88;4.30;;;23.50;33.30;;;;;;6188902;23;20274;-63
2022/03/28 11:39:31;;;;;;;5.20;4.70;;;23.50;33.50;;;;;;6215804;23;20166;-63
2022/03/28 11:41:59;;;;;;;4.88;4.45;;;23.50;33.50;;;;;;6215679;23;20163;-63
2022/03/28 11:44:27;;;;;;;5.80;4.32;;;23.50;33.50;;;;;;6215604;23;20183;-64
2022/03/28 11:46:54;;;;;;;5.00;4.50;;;23.50;33.40;;;;;;6215562;23;20622;-64
2022/03/28 11:49:22;;;;;;;5.22;4.72;;;23.50;33.20;;;;;;6215687;23;20234;-63
2022/03/28 11:51:49;;;;;;;5.00;4.60;;;23.50;33.20;;;;;;6215644;23;20179;-64
2022/03/28 11:54:20;;;;;;;4.70;4.30;;;23.50;33.20;;;;;;6216206;23;20191;-64
2022/03/28 11:59:33;;;;;;;4.55;4.13;;;23.60;33.30;;;;;;6219647;23;20230;-65
2022/03/28 12:02:01;;;;;;;4.75;4.35;;;23.60;33.30;;;;;;6215037;23;20171;-64
2022/03/28 12:04:28;;;;;;;4.60;4.20;;;23.60;33.30;;;;;;6215707;23;20599;-63
2022/03/28 12:06:56;;;;;;;4.55;4.15;;;23.60;33.20;;;;;;6216620;23;20243;-64
2022/03/28 12:09:25;;;;;;;5.18;4.65;;;23.60;33.20;;;;;;6216680;23;20160;-64
2022/03/28 12:11:53;;;;;;;4.55;4.20;;;23.60;33.30;;;;;;6214127;23;20195;-64
2022/03/28 12:14:21;;;;;;;4.68;4.10;;;23.60;33.20;;;;;;6188783;23;20241;-63
2022/03/28 12:16:48;;;;;;;4.43;4.13;;;23.60;33.20;;;;;;6246353;22;20519;-64
2022/03/28 12:19:19;;;;;;;5.00;4.60;;;23.70;33.30;;;;;;6276945;22;20265;-64
2022/03/28 12:21:47;;;;;;;5.22;4.72;;;23.70;33.30;;;;;;6250481;22;20170;-64
2022/03/28 12:24:13;;;;;;;5.13;4.63;;;23.70;33.10;;;;;;6244945;23;20282;-64
2022/03/28 12:26:45;;;;;;;5.55;4.85;;;23.70;32.90;;;;;;6219064;23;20257;-64
2022/03/28 12:29:12;;;;;;;5.00;4.60;;;23.70;33.10;;;;;;6219016;23;20181;-64
2022/03/28 12:31:41;;;;;;;4.72;4.32;;;23.70;33.20;;;;;;6245933;23;20225;-66
2022/03/28 12:34:09;;;;;;;4.72;4.18;;;23.70;33.30;;;;;;6218992;23;20214;-67
2022/03/28 12:36:35;;;;;;;5.13;4.63;;;23.70;33.40;;;;;;6246045;23;20163;-66
2022/03/28 12:39:06;;;;;;;4.40;4.00;;;23.70;33.40;;;;;;6220371;23;20177;-67
2022/03/28 12:41:40;;;;;;;4.50;4.15;;;23.70;34.10;;;;;;6247984;23;20163;-66
2022/03/28 12:44:12;;;;;;;4.90;4.50;;;23.70;33.50;;;;;;6247779;23;20186;-66
2022/03/28 12:46:39;;;;;;;4.38;4.00;;;23.70;33.40;;;;;;6220477;23;20585;-66
2022/03/28 12:49:08;;;;;;;5.10;4.60;;;23.70;33.50;;;;;;6247351;23;20191;-66
2022/03/28 12:51:38;;;;;;;4.88;4.20;;;23.70;33.60;;;;;;6247253;23;20183;-67
2022/03/28 12:54:30;;;;;;;4.32;3.92;;;23.70;33.60;;;;;;6247936;23;20213;-66
2022/03/28 12:56:59;;;;;;;5.18;4.47;;;23.70;33.60;;;;;;6220511;23;20205;-66
2022/03/28 12:59:28;;;;;;;4.95;4.45;;;23.70;33.50;;;;;;6248723;23;20158;-66
2022/03/28 13:02:07;;;;;;;4.90;4.40;;;23.60;33.50;;;;;;6220555;23;20653;-66
2022/03/28 13:04:42;;;;;;;5.05;4.65;;;23.60;33.70;;;;;;6220755;23;20200;-67
2022/03/28 13:07:09;;;;;;;4.97;4.15;;;23.60;33.70;;;;;;6220586;23;20249;-67
2022/03/28 13:09:36;;;;;;;5.10;4.60;;;23.60;33.70;;;;;;6221111;23;20182;-67
2022/03/28 13:12:07;;;;;;;4.50;4.10;;;23.60;33.70;;;;;;6220323;23;20197;-66
2022/03/28 13:14:38;;;;;;;4.97;4.57;;;23.60;33.80;;;;;;6220385;23;20194;-66
2022/03/28 13:17:08;;;;;;;4.95;4.45;;;23.60;33.80;;;;;;6220378;23;20232;-66